Time;durP1;ratioP1;P1;durP2;ratioP2;P2;SDS_P1;SDS_P2;PMS_P1;PMS_P2;Temp;Humidity;BMP_temperature;BMP_pressure;BME280_temperature;BME280_humidity;BME280_pressure;Samples;Min_cycle;Max_cycle;Signal;HPM_P1;HPM_P2
2023/05/08 00:01:36;;;;;;;6.97;3.65;;;;;;;11.74;100.00;101408.75;5077537;28;20033;-74
2023/05/08 00:04:01;;;;;;;6.55;3.72;;;;;;;11.97;100.00;101455.22;5077093;28;20021;-74
2023/05/08 00:06:27;;;;;;;6.95;3.40;;;;;;;11.47;100.00;101406.44;5075412;28;20071;-74
2023/05/08 00:08:54;;;;;;;8.40;3.33;;;;;;;11.86;100.00;101464.69;5076651;28;20410;-75
2023/05/08 00:11:19;;;;;;;5.20;3.40;;;;;;;11.64;100.00;101402.88;5076717;28;20145;-75
2023/05/08 00:13:45;;;;;;;6.38;3.72;;;;;;;11.88;100.00;101470.63;5076859;28;20123;-74
2023/05/08 00:16:11;;;;;;;6.80;3.90;;;;;;;11.91;100.00;101491.81;5075789;28;20032;-74
2023/05/08 00:18:37;;;;;;;7.55;4.13;;;;;;;11.22;100.00;101438.84;5077225;28;20034;-74
2023/05/08 00:21:03;;;;;;;5.93;4.00;;;;;;;11.94;100.00;101498.59;5076689;28;20029;-74
2023/05/08 00:23:29;;;;;;;8.98;3.83;;;;;;;12.01;100.00;101505.31;5075401;28;20046;-75
2023/05/08 00:25:54;;;;;;;6.28;4.18;;;;;;;11.56;100.00;101458.13;5072663;28;20074;-74
2023/05/08 00:28:20;;;;;;;8.80;3.88;;;;;;;11.90;100.00;101538.56;5073632;28;20482;-75
2023/05/08 00:30:45;;;;;;;7.68;4.18;;;;;;;11.81;100.00;101553.91;5073833;28;20033;-75
2023/05/08 00:33:11;;;;;;;6.30;4.50;;;;;;;11.27;100.00;101482.94;5073132;28;20101;-75
2023/05/08 00:35:36;;;;;;;6.85;4.45;;;;;;;11.84;100.00;101565.78;5072469;28;20028;-75
2023/05/08 00:38:02;;;;;;;9.07;4.20;;;;;;;11.82;100.00;101570.91;5074061;28;20016;-75
2023/05/08 00:40:27;;;;;;;8.18;4.50;;;;;;;11.59;100.00;101587.16;5073728;28;20036;-75
2023/05/08 00:42:53;;;;;;;7.18;4.63;;;;;;;11.48;100.00;101607.59;5072843;28;20475;-75
2023/05/08 00:45:18;;;;;;;8.70;4.80;;;;;;;11.75;100.00;101584.53;5073762;28;20578;-75
2023/05/08 00:47:44;;;;;;;9.95;4.90;;;;;;;11.38;100.00;101588.13;5072464;28;20082;-74
2023/05/08 00:50:10;;;;;;;9.32;5.30;;;;;;;11.85;100.00;101649.88;5072410;28;20064;-75
2023/05/08 00:52:36;;;;;;;9.68;5.10;;;;;;;11.57;100.00;101671.22;5073165;28;20032;-75
2023/05/08 00:55:03;;;;;;;10.75;5.00;;;;;;;11.52;100.00;101680.59;5072503;28;20062;-75
2023/05/08 00:57:31;;;;;;;8.40;5.00;;;;;;;11.21;100.00;101635.75;5071972;28;20079;-75
2023/05/08 00:59:59;;;;;;;9.98;4.85;;;;;;;11.26;100.00;101660.34;5073770;28;20028;-75
2023/05/08 01:02:25;;;;;;;9.15;4.72;;;;;;;11.52;100.00;101739.19;5073507;28;20039;-75
2023/05/08 01:04:52;;;;;;;10.02;5.20;;;;;;;11.06;100.00;101735.03;5071017;28;20029;-74
2023/05/08 01:07:18;;;;;;;8.50;5.07;;;;;;;11.44;100.00;101780.78;5072969;28;20063;-75
2023/05/08 01:09:43;;;;;;;6.53;4.22;;;;;;;11.30;100.00;101778.28;5073320;28;20052;-75
2023/05/08 01:12:30;;;;;;;9.80;4.55;;;;;;;11.43;100.00;101784.22;5072338;28;20032;-75
2023/05/08 01:15:05;;;;;;;10.07;4.57;;;;;;;11.42;100.00;101798.63;5072024;28;20035;-73
2023/05/08 01:17:40;;;;;;;8.88;4.47;;;;;;;11.05;100.00;101799.53;5072940;28;20032;-75
2023/05/08 01:20:11;;;;;;;7.05;4.85;;;;;;;11.12;100.00;101801.22;5073225;28;20027;-72
2023/05/08 01:22:55;;;;;;;9.75;4.70;;;;;;;11.12;100.00;101789.34;5073518;28;20507;-74
2023/05/08 01:25:45;;;;;;;9.43;4.35;;;;;;;11.27;100.00;101778.28;5072189;28;20032;-75
2023/05/08 01:28:16;;;;;;;8.50;4.13;;;;;;;11.23;100.00;101781.69;5072651;28;20032;-75
2023/05/08 01:30:42;;;;;;;9.98;4.00;;;;;;;11.31;100.00;101780.81;5073182;28;20078;-74
2023/05/08 01:33:16;;;;;;;10.52;4.40;;;;;;;11.28;100.00;101767.25;5073126;28;20029;-75
2023/05/08 01:35:46;;;;;;;8.02;3.95;;;;;;;11.27;100.00;101719.72;5071311;28;20082;-74
2023/05/08 01:38:26;;;;;;;7.93;4.25;;;;;;;11.35;100.00;101764.69;5072198;28;20384;-74
2023/05/08 01:40:55;;;;;;;7.55;3.97;;;;;;;10.80;100.00;101693.50;5072447;28;20084;-74
2023/05/08 01:43:35;;;;;;;7.15;4.20;;;;;;;10.93;100.00;101738.47;5072675;28;20036;-75
2023/05/08 01:46:08;;;;;;;7.30;4.00;;;;;;;10.68;100.00;101674.03;5071176;28;20024;-75
2023/05/08 01:48:37;;;;;;;7.90;3.97;;;;;;;10.95;100.00;101719.78;5071146;28;20098;-75
2023/05/08 01:51:07;;;;;;;6.93;4.32;;;;;;;10.92;100.00;101708.75;5072408;28;20028;-74
2023/05/08 01:53:40;;;;;;;7.72;3.95;;;;;;;11.00;100.00;101695.19;5072577;28;20505;-75
2023/05/08 01:56:16;;;;;;;8.40;3.95;;;;;;;10.92;100.00;101628.19;5072711;28;20043;-74
2023/05/08 01:58:42;;;;;;;8.15;4.40;;;;;;;11.19;100.00;101637.44;5071097;28;20096;-74
2023/05/08 02:01:11;;;;;;;9.80;4.22;;;;;;;11.04;100.00;101640.88;5070765;28;20103;-74
2023/05/08 02:03:40;;;;;;;9.10;4.03;;;;;;;11.32;100.00;101642.47;5052035;28;20028;-75
2023/05/08 02:06:08;;;;;;;8.02;4.50;;;;;;;11.17;100.00;101618.78;5052060;28;20476;-73
2023/05/08 02:08:35;;;;;;;7.70;4.00;;;;;;;10.96;100.00;101581.53;5051760;28;20108;-74
2023/05/08 02:11:02;;;;;;;7.95;4.32;;;;;;;10.62;100.00;101562.13;5052391;28;20029;-75
2023/05/08 02:13:30;;;;;;;9.95;4.38;;;;;;;11.00;100.00;101611.19;5052072;28;20616;-74
2023/05/08 02:15:58;;;;;;;11.43;5.68;;;;;;;10.56;100.00;101553.69;5067096;28;20036;-73
2023/05/08 02:18:24;;;;;;;10.70;4.60;;;;;;;10.82;100.00;101592.59;5050656;28;20411;-74
2023/05/08 02:20:52;;;;;;;10.30;4.30;;;;;;;10.47;100.00;101546.91;5051263;28;20107;-75
2023/05/08 02:23:21;;;;;;;10.45;4.90;;;;;;;11.02;100.00;101578.97;5067021;28;20581;-76
2023/05/08 02:25:47;;;;;;;8.73;4.70;;;;;;;10.67;100.00;101527.38;5050734;28;20036;-75
2023/05/08 02:28:15;;;;;;;19.13;6.57;;;;;;;10.67;100.00;101577.38;5052146;28;20059;-76
2023/05/08 02:30:42;;;;;;;14.98;6.97;;;;;;;10.50;100.00;101551.97;5050484;28;20129;-73
2023/05/08 02:33:10;;;;;;;12.77;6.68;;;;;;;10.77;100.00;101561.25;5050558;28;20040;-76
2023/05/08 02:35:37;;;;;;;17.30;8.02;;;;;;;10.39;100.00;101475.75;5050974;28;20036;-75
2023/05/08 02:38:09;;;;;;;23.83;8.85;;;;;;;10.76;100.00;101568.03;5051247;28;20038;-75
2023/05/08 02:40:37;;;;;;;11.63;6.50;;;;;;;10.73;100.00;101574.81;5051595;28;20087;-76
2023/05/08 02:43:03;;;;;;;8.95;5.75;;;;;;;10.69;100.00;101560.41;5051463;28;20036;-76
2023/05/08 02:45:54;;;;;;;10.60;5.13;;;;;;;10.92;100.00;101561.19;5050433;28;20037;-75
2023/05/08 02:48:31;;;;;;;8.90;4.65;;;;;;;10.56;100.00;101554.50;5019647;28;20044;-75
2023/05/08 02:51:05;;;;;;;7.47;4.18;;;;;;;10.46;100.00;101540.13;5051276;28;20029;-75
2023/05/08 02:53:36;;;;;;;6.45;4.53;;;;;;;10.61;100.00;101513.81;5051116;28;20047;-74
2023/05/08 02:56:10;;;;;;;6.75;4.43;;;;;;;10.99;100.00;101547.59;5050454;28;20064;-75
2023/05/08 02:58:41;;;;;;;8.23;4.30;;;;;;;11.35;100.00;101555.03;5050710;28;20025;-76
2023/05/08 03:01:24;;;;;;;9.35;4.75;;;;;;;10.29;100.00;101418.16;5057782;28;20032;-77
2023/05/08 03:04:01;;;;;;;9.60;4.80;;;;;;;10.49;100.00;101418.09;5077048;28;20056;-75
2023/05/08 03:06:35;;;;;;;8.38;5.30;;;;;;;11.19;100.00;101309.06;5090092;28;20036;-74
2023/05/08 03:09:03;;;;;;;9.30;5.35;;;;;;;10.69;100.00;101255.22;5091249;28;20036;-76
2023/05/08 03:11:36;;;;;;;8.45;5.10;;;;;;;10.21;100.00;101267.41;5085088;28;20082;-76
2023/05/08 03:14:02;;;;;;;12.18;6.07;;;;;;;10.55;100.00;101262.09;5069985;28;20024;-77
2023/05/08 03:16:31;;;;;;;11.77;5.85;;;;;;;10.74;100.00;101297.56;5069579;28;20032;-73
2023/05/08 03:19:02;;;;;;;9.20;5.07;;;;;;;10.73;100.00;101293.34;5071218;28;20086;-76
2023/05/08 03:21:29;;;;;;;11.13;5.27;;;;;;;10.53;100.00;101271.44;5070793;28;20052;-75
2023/05/08 03:24:01;;;;;;;9.00;5.25;;;;;;;10.41;100.00;101283.38;5090517;28;20099;-73
2023/05/08 03:26:27;;;;;;;8.48;4.65;;;;;;;10.74;100.00;101292.47;5063490;28;20083;-74
2023/05/08 03:28:55;;;;;;;10.40;4.60;;;;;;;11.77;100.00;101251.56;5050613;28;20065;-74
2023/05/08 03:31:21;;;;;;;9.40;4.80;;;;;;;10.98;100.00;101246.47;5051157;28;20025;-74
2023/05/08 03:33:52;;;;;;;9.40;4.78;;;;;;;10.24;100.00;101233.50;5049706;28;20098;-74
2023/05/08 03:36:17;;;;;;;7.82;4.70;;;;;;;10.09;100.00;101281.84;5049378;28;20025;-73
2023/05/08 03:38:44;;;;;;;6.65;4.40;;;;;;;10.93;100.00;101304.22;5049063;28;20028;-73
2023/05/08 03:41:10;;;;;;;9.40;4.97;;;;;;;10.42;100.00;101291.84;5049674;28;20087;-73
2023/05/08 03:43:36;;;;;;;5.05;3.95;;;;;;;10.49;100.00;101293.50;5050410;28;20047;-78
2023/05/08 03:46:05;;;;;;;7.55;4.40;;;;;;;10.93;100.00;101328.81;5066813;28;20515;-78
2023/05/08 03:48:35;;;;;;;9.75;4.70;;;;;;;10.78;100.00;101295.81;5070283;28;20082;-77
2023/05/08 03:51:02;;;;;;;9.02;5.25;;;;;;;10.79;100.00;101330.59;5069586;28;20118;-77
2023/05/08 03:53:29;;;;;;;8.90;5.78;;;;;;;10.53;100.00;101325.69;5061601;28;20674;-75
2023/05/08 03:55:58;;;;;;;14.15;8.77;;;;;;;10.05;100.00;101226.81;5066201;28;20115;-79
2023/05/08 03:58:55;;;;;;;15.10;9.25;;;;;;;10.50;100.00;101318.06;5049497;28;20040;-75
2023/05/08 04:01:27;;;;;;;13.52;6.43;;;;;;;10.98;100.00;101334.69;5045878;28;20174;-80
2023/05/08 04:04:06;;;;;;;12.88;5.45;;;;;;;11.01;100.00;101345.66;5069225;28;20032;-76
2023/05/08 04:06:50;;;;;;;9.70;5.07;;;;;;;13.31;100.00;101402.44;5093372;28;20031;-80
2023/05/08 04:09:50;;;;;;;12.63;5.40;;;;;;;10.94;100.00;101338.97;5072482;28;20055;-78
2023/05/08 04:12:22;;;;;;;21.33;6.18;;;;;;;11.56;100.00;101368.97;5073958;28;20084;-78
2023/05/08 04:15:05;;;;;;;8.50;4.60;;;;;;;11.08;100.00;101308.31;5067617;28;20105;-78
2023/05/08 04:17:42;;;;;;;7.20;4.90;;;;;;;11.32;100.00;101361.56;5068556;28;20051;-79
2023/05/08 04:20:12;;;;;;;6.82;4.70;;;;;;;11.43;100.00;101375.03;5052370;28;20041;-79
2023/05/08 04:22:40;;;;;;;10.50;4.50;;;;;;;11.11;100.00;101365.09;5053009;28;20049;-79
2023/05/08 04:25:07;;;;;;;11.02;4.43;;;;;;;11.47;100.00;101383.50;5069108;28;20407;-79
2023/05/08 04:27:34;;;;;;;8.88;4.75;;;;;;;11.51;100.00;101373.25;5052853;28;20040;-80
2023/05/08 04:30:00;;;;;;;9.98;4.32;;;;;;;11.27;100.00;101297.09;5053921;28;20079;-80
2023/05/08 04:32:27;;;;;;;7.47;4.22;;;;;;;11.75;100.00;101342.47;5053765;28;20037;-80
2023/05/08 04:34:54;;;;;;;8.25;4.45;;;;;;;11.83;100.00;101348.34;5069618;28;20025;-80
2023/05/08 04:37:27;;;;;;;9.02;4.18;;;;;;;12.20;100.00;101374.25;5069449;28;20032;-79
2023/05/08 04:39:53;;;;;;;9.35;3.80;;;;;;;12.55;100.00;101389.94;5069570;28;20021;-79
2023/05/08 04:42:19;;;;;;;7.55;3.95;;;;;;;12.56;100.00;101371.22;5053011;28;20422;-80
2023/05/08 04:44:46;;;;;;;7.38;4.00;;;;;;;12.31;100.00;101919.88;5053365;28;20060;-80
2023/05/08 04:47:12;;;;;;;8.45;4.28;;;;;;;12.22;100.00;102055.94;5069851;28;20044;-80
2023/05/08 04:49:37;;;;;;;8.13;4.20;;;;;;;12.93;100.00;102086.38;5053950;28;20033;-79
2023/05/08 04:52:03;;;;;;;6.80;4.18;;;;;;;12.67;100.00;102111.13;5053539;28;20098;-84
2023/05/08 04:54:28;;;;;;;6.03;4.00;;;;;;;12.96;100.00;102087.22;5053070;28;20109;-80
2023/05/08 04:56:54;;;;;;;7.00;3.90;;;;;;;13.23;100.00;102039.47;5053733;28;20396;-78
2023/05/08 04:59:21;;;;;;;8.25;4.40;;;;;;;13.68;100.00;102024.69;5069098;28;20530;-78
2023/05/08 05:01:46;;;;;;;12.55;5.22;;;;;;;13.75;100.00;101971.75;5069734;28;20021;-78
2023/05/08 05:04:12;;;;;;;7.57;4.40;;;;;;;13.71;100.00;101924.94;5068893;28;20440;-79
2023/05/08 05:06:37;;;;;;;6.95;4.38;;;;;;;14.26;100.00;101888.53;5068691;28;20431;-83
2023/05/08 05:09:04;;;;;;;6.13;4.35;;;;;;;13.79;100.00;101766.34;5053161;28;20029;-82
2023/05/08 05:11:29;;;;;;;7.82;4.40;;;;;;;14.50;100.00;101730.38;5052744;28;20033;-78
2023/05/08 05:13:55;;;;;;;7.68;4.25;;;;;;;14.64;100.00;101673.84;5053042;28;20423;-80
2023/05/08 05:16:20;;;;;;;7.40;3.95;;;;;;;14.15;100.00;101565.50;5053650;28;20021;-80
2023/05/08 05:18:46;;;;;;;7.47;3.90;;;;;;;14.74;100.00;101571.25;5053162;28;20043;-79
2023/05/08 05:21:12;;;;;;;7.38;3.78;;;;;;;14.63;100.00;101544.16;5052129;28;20033;-78
2023/05/08 05:23:37;;;;;;;7.80;3.85;;;;;;;14.48;100.00;101508.63;5053332;28;20039;-79
2023/05/08 05:26:03;;;;;;;9.48;3.53;;;;;;;14.49;100.00;101420.75;5068622;28;20046;-83
2023/05/08 05:28:28;;;;;;;10.13;3.55;;;;;;;15.34;100.00;101465.78;5053953;28;20052;-80
2023/05/08 05:30:54;;;;;;;6.82;3.25;;;;;;;15.43;100.00;101394.66;5069122;28;20075;-83
2023/05/08 05:33:19;;;;;;;8.55;2.97;;;;;;;15.44;100.00;101403.19;5053551;28;20025;-83
2023/05/08 05:35:45;;;;;;;6.30;3.00;;;;;;;15.07;100.00;101363.94;5053176;28;20029;-86
2023/05/08 05:38:10;;;;;;;4.85;3.30;;;;;;;15.17;100.00;101361.09;5052610;28;20037;-81
2023/05/08 05:40:36;;;;;;;6.38;3.45;;;;;;;15.78;100.00;101354.44;5052039;28;20033;-86
2023/05/08 05:43:01;;;;;;;5.88;2.75;;;;;;;15.25;100.00;101253.31;5052067;28;20479;-84
2023/05/08 05:45:26;;;;;;;7.40;4.15;;;;;;;15.70;100.00;101212.78;5068415;28;20526;-84
2023/05/08 05:47:52;;;;;;;6.65;2.83;;;;;;;14.87;100.00;101121.16;5052056;28;20488;-86
2023/05/08 05:50:20;;;;;;;11.82;5.07;;;;;;;15.03;100.00;101130.09;5053107;28;20040;-83
2023/05/08 05:52:45;;;;;;;9.90;4.95;;;;;;;15.65;100.00;101143.69;5052925;28;20031;-85
2023/05/08 05:55:11;;;;;;;13.10;5.50;;;;;;;15.87;100.00;101142.13;5067694;28;20021;-85
2023/05/08 05:57:36;;;;;;;5.85;3.03;;;;;;;15.16;100.00;101136.56;5052018;28;20029;-87
2023/05/08 06:00:03;;;;;;;7.55;3.10;;;;;;;15.58;100.00;101144.75;5052117;28;20032;-82
2023/05/08 06:02:29;;;;;;;6.18;2.50;;;;;;;15.99;100.00;101128.94;5051544;28;20037;-86
2023/05/08 06:04:54;;;;;;;4.05;2.63;;;;;;;15.94;100.00;101104.31;5052667;28;20476;-85
2023/05/08 06:07:20;;;;;;;4.13;2.60;;;;;;;15.99;100.00;101092.19;5052029;28;20029;-84
2023/05/08 06:09:46;;;;;;;4.40;2.50;;;;;;;16.83;100.00;101048.22;5052158;28;20059;-84
2023/05/08 06:12:12;;;;;;;5.43;2.10;;;;;;;16.17;100.00;101056.50;5052113;28;20036;-83
2023/05/08 06:14:37;;;;;;;4.30;2.30;;;;;;;16.99;100.00;101027.94;5051130;28;20050;-80
2023/05/08 06:17:03;;;;;;;5.45;2.30;;;;;;;16.48;100.00;101021.22;5067567;28;20120;-83
2023/05/08 06:19:28;;;;;;;3.83;2.20;;;;;;;15.94;100.00;100961.53;5051952;28;20048;-81
2023/05/08 06:21:54;;;;;;;5.03;2.00;;;;;;;15.96;100.00;101010.22;5052151;28;20041;-81
2023/05/08 06:24:19;;;;;;;6.95;2.00;;;;;;;16.52;100.00;101003.97;5051894;28;20037;-83
2023/05/08 06:26:45;;;;;;;3.63;1.98;;;;;;;16.49;100.00;100986.13;5067241;28;20033;-82
2023/05/08 06:29:11;;;;;;;4.10;1.88;;;;;;;16.41;100.00;100965.81;5052079;28;20078;-83
2023/05/08 06:31:37;;;;;;;5.07;2.10;;;;;;;16.57;100.00;100901.94;5051685;28;20036;-83
2023/05/08 06:34:02;;;;;;;5.78;1.92;;;;;;;16.50;100.00;100854.28;5067449;28;20025;-82
2023/05/08 06:36:28;;;;;;;4.95;2.20;;;;;;;17.00;100.00;100917.38;5050630;28;20480;-80
2023/05/08 06:38:53;;;;;;;7.20;2.30;;;;;;;17.83;100.00;100920.84;5050784;28;20029;-83
2023/05/08 06:41:19;;;;;;;4.95;2.20;;;;;;;17.75;100.00;100903.16;5052126;28;20043;-84
2023/05/08 06:43:45;;;;;;;7.65;2.08;;;;;;;16.43;100.00;100807.47;5052415;28;20139;-83
2023/05/08 06:46:11;;;;;;;3.03;1.98;;;;;;;17.51;100.00;100883.59;5051920;28;20033;-82
2023/05/08 06:48:37;;;;;;;3.85;1.80;;;;;;;18.23;100.00;100868.44;5051020;28;20102;-81
2023/05/08 06:51:03;;;;;;;3.95;2.00;;;;;;;17.74;100.00;100767.72;5067521;28;20033;-83
2023/05/08 06:53:28;;;;;;;2.42;1.80;;;;;;;18.06;100.00;100764.50;5067650;28;20029;-80
2023/05/08 06:55:54;;;;;;;3.50;1.92;;;;;;;18.47;100.00;100742.03;5056877;28;20475;-78
2023/05/08 06:58:19;;;;;;;2.60;1.52;;;;;;;18.76;100.00;100764.63;5069732;28;20510;-79
2023/05/08 07:00:45;;;;;;;4.75;1.88;;;;;;;19.07;100.00;100699.50;5070078;28;20024;-80
2023/05/08 07:03:10;;;;;;;2.95;1.70;;;;;;;18.46;100.00;100673.38;5071759;28;20032;-78
2023/05/08 07:05:36;;;;;;;2.58;1.40;;;;;;;18.90;100.00;100617.88;5070092;28;20029;-81
2023/05/08 07:08:01;;;;;;;3.47;1.42;;;;;;;18.58;100.00;100587.78;5070463;28;20029;-79
2023/05/08 07:10:26;;;;;;;3.60;1.35;;;;;;;18.58;100.00;100504.53;5071577;28;20029;-79
2023/05/08 07:12:52;;;;;;;3.70;1.65;;;;;;;19.44;100.00;100474.03;5070410;28;20499;-83
2023/05/08 07:15:17;;;;;;;3.25;1.25;;;;;;;19.99;100.00;100469.94;5070923;28;20484;-82
2023/05/08 07:17:43;;;;;;;3.80;1.48;;;;;;;19.66;100.00;100488.22;5070310;28;20032;-85
2023/05/08 07:20:08;;;;;;;3.72;1.50;;;;;;;19.32;100.00;100439.41;5070476;28;20059;-83
2023/05/08 07:22:34;;;;;;;4.10;1.35;;;;;;;19.26;100.00;100470.72;5071173;28;20045;-83
2023/05/08 07:25:00;;;;;;;2.88;1.40;;;;;;;19.65;100.00;100465.06;5071557;28;20024;-82
2023/05/08 07:27:25;;;;;;;3.72;1.50;;;;;;;19.21;100.00;100413.44;5071750;28;20024;-81
2023/05/08 07:29:51;;;;;;;4.05;1.58;;;;;;;19.09;100.00;100463.09;5070701;28;20524;-80
2023/05/08 07:32:16;;;;;;;3.00;1.73;;;;;;;19.01;100.00;100463.47;5070147;28;20476;-80
2023/05/08 07:34:42;;;;;;;3.72;1.58;;;;;;;19.68;100.00;100439.09;5073327;28;20032;-80
2023/05/08 07:37:07;;;;;;;3.47;1.40;;;;;;;20.35;100.00;100452.28;5073838;28;20025;-80
2023/05/08 07:39:33;;;;;;;5.78;1.98;;;;;;;20.73;100.00;100457.69;5075227;28;20040;-80
2023/05/08 07:41:58;;;;;;;3.08;1.42;;;;;;;20.16;100.00;100453.47;5073620;28;20032;-79
2023/05/08 07:44:24;;;;;;;3.97;1.80;;;;;;;20.24;100.00;100456.44;5074988;28;20388;-79
2023/05/08 07:46:49;;;;;;;4.88;1.65;;;;;;;19.60;100.00;100415.50;5073947;28;20533;-82
2023/05/08 07:49:15;;;;;;;2.75;1.58;;;;;;;19.93;100.00;100441.09;5074379;28;20505;-83
2023/05/08 07:51:41;;;;;;;4.25;1.73;;;;;;;19.70;100.00;100404.56;5074056;28;20031;-82
2023/05/08 07:54:06;;;;;;;4.55;1.90;;;;;;;20.48;100.00;100436.88;5074896;28;20169;-80
2023/05/08 07:56:32;;;;;;;5.90;1.60;;;;;;;20.62;100.00;100429.91;5074743;28;20392;-81
2023/05/08 07:58:57;;;;;;;8.45;2.20;;;;;;;19.91;100.00;100451.47;5073690;28;20032;-80
2023/05/08 08:01:22;;;;;;;7.45;1.83;;;;;;;20.43;100.00;100393.25;5074598;28;20029;-80
2023/05/08 08:03:48;;;;;;;77.65;9.32;;;;;;;19.36;100.00;100435.78;5074715;28;20025;-80
2023/05/08 08:06:13;;;;;;;5.05;1.55;;;;;;;18.63;100.00;100387.47;5074152;28;20037;-80
2023/05/08 08:08:39;;;;;;;7.05;1.77;;;;;;;20.44;100.00;100420.72;5074720;28;20127;-80
2023/05/08 08:11:05;;;;;;;3.15;1.55;;;;;;;20.80;96.69;100429.72;5073540;28;20083;-79
2023/05/08 08:13:31;;;;;;;2.35;1.60;;;;;;;20.14;97.45;100347.69;5073460;28;20052;-81
2023/05/08 08:15:59;;;;;;;17.05;2.97;;;;;;;21.62;94.64;100420.88;5073942;28;20143;-81
2023/05/08 08:18:24;;;;;;;15.63;2.70;;;;;;;21.09;91.36;100419.22;5072100;28;20123;-81
2023/05/08 08:20:50;;;;;;;6.68;2.17;;;;;;;21.10;90.82;100374.31;5073210;28;20127;-80
2023/05/08 08:23:16;;;;;;;4.72;2.05;;;;;;;21.34;95.04;100379.63;5073928;28;20071;-82
2023/05/08 08:25:42;;;;;;;5.97;2.08;;;;;;;21.65;99.02;100418.06;5073331;28;20025;-81
2023/05/08 08:28:07;;;;;;;5.05;2.05;;;;;;;21.11;100.00;100429.47;5073564;28;20521;-80
2023/05/08 08:30:32;;;;;;;3.95;2.10;;;;;;;21.31;100.00;100423.84;5073392;28;21152;-80
2023/05/08 08:33:01;;;;;;;4.57;2.08;;;;;;;21.31;100.00;100423.84;5073953;28;20676;-82
2023/05/08 08:35:28;;;;;;;6.60;2.10;;;;;;;21.91;100.00;100440.50;5073357;28;20033;-79
2023/05/08 08:37:57;;;;;;;4.78;2.20;;;;;;;21.52;100.00;100432.78;5072889;28;20058;-81
2023/05/08 08:40:22;;;;;;;4.47;2.20;;;;;;;21.04;100.00;100381.63;5074326;28;20028;-83
2023/05/08 08:42:48;;;;;;;6.05;2.00;;;;;;;21.27;100.00;100440.47;5074572;28;20039;-81
2023/05/08 08:45:13;;;;;;;5.38;2.42;;;;;;;21.43;100.00;100423.03;5072466;28;20036;-78
2023/05/08 08:47:42;;;;;;;4.63;2.03;;;;;;;21.95;100.00;100353.06;5074100;28;20047;-79
2023/05/08 08:50:08;;;;;;;6.07;2.45;;;;;;;21.34;100.00;100397.75;5074012;28;20052;-75
2023/05/08 08:52:53;;;;;;;5.55;2.45;;;;;;;20.60;100.00;100421.44;5072872;28;20043;-78
2023/05/08 08:55:22;;;;;;;5.03;2.10;;;;;;;20.07;100.00;100389.44;5073957;28;20043;-77
2023/05/08 08:58:14;;;;;;;5.78;2.35;;;;;;;21.49;100.00;100391.59;5073811;28;20116;-79
2023/05/08 09:00:40;;;;;;;6.93;2.22;;;;;;;21.43;100.00;100358.34;5073362;28;20115;-81
2023/05/08 09:03:09;;;;;;;4.15;2.15;;;;;;;21.83;100.00;100413.50;5073610;28;20082;-81
2023/05/08 09:05:35;;;;;;;4.22;2.10;;;;;;;21.15;100.00;100413.66;5073987;28;20037;-80
2023/05/08 09:08:01;;;;;;;5.53;2.00;;;;;;;21.96;100.00;100403.94;5073781;28;20032;-82
2023/05/08 09:10:27;;;;;;;4.28;2.20;;;;;;;20.10;100.00;100361.72;5072286;28;20036;-80
2023/05/08 09:12:52;;;;;;;4.82;2.05;;;;;;;22.07;100.00;100404.88;5072297;28;20037;-79
2023/05/08 09:15:18;;;;;;;4.28;2.10;;;;;;;22.61;100.00;100391.63;5072258;28;20040;-79
2023/05/08 09:17:43;;;;;;;7.85;2.20;;;;;;;22.50;100.00;100389.78;5072652;28;20031;-79
2023/05/08 09:20:10;;;;;;;8.25;2.42;;;;;;;21.53;100.00;100383.50;5071909;28;20035;-78
2023/05/08 09:22:36;;;;;;;4.68;2.20;;;;;;;22.18;100.00;100342.81;5073052;28;20056;-78
2023/05/08 09:25:02;;;;;;;5.28;2.13;;;;;;;22.61;100.00;100378.66;5072085;28;20051;-81
2023/05/08 09:27:28;;;;;;;6.03;2.22;;;;;;;21.99;100.00;100401.13;5072101;28;20075;-82
2023/05/08 09:29:57;;;;;;;4.82;2.00;;;;;;;22.40;100.00;100322.19;5073195;28;20031;-81
2023/05/08 09:32:23;;;;;;;6.50;2.17;;;;;;;22.80;100.00;100327.16;5071937;28;20112;-81
2023/05/08 09:34:52;;;;;;;3.65;2.20;;;;;;;23.07;100.00;100314.75;5072331;28;20106;-81
2023/05/08 09:37:17;;;;;;;3.13;2.05;;;;;;;22.91;100.00;100314.22;5071848;28;20028;-80
2023/05/08 09:39:45;;;;;;;5.15;2.40;;;;;;;23.30;100.00;100311.25;5071505;28;20040;-81
2023/05/08 09:42:11;;;;;;;3.88;2.20;;;;;;;23.14;100.00;100311.56;5071328;28;20509;-76
2023/05/08 09:44:45;;;;;;;4.30;2.22;;;;;;;22.79;100.00;100323.72;5072426;28;20040;-81
2023/05/08 09:47:13;;;;;;;3.95;2.03;;;;;;;23.31;100.00;100341.50;5071986;28;20032;-79
2023/05/08 09:49:55;;;;;;;5.10;2.30;;;;;;;23.55;100.00;100312.88;5072004;28;20025;-82
2023/05/08 09:52:21;;;;;;;8.48;2.47;;;;;;;22.48;100.00;100320.84;5071887;28;20260;-81
2023/05/08 09:54:55;;;;;;;7.60;2.40;;;;;;;23.65;100.00;100363.16;5071049;28;20471;-79
2023/05/08 09:57:20;;;;;;;4.40;2.38;;;;;;;22.41;100.00;100365.31;5071175;28;20057;-81
2023/05/08 09:59:45;;;;;;;5.05;2.22;;;;;;;23.92;100.00;100356.69;5071275;28;20123;-78
2023/05/08 10:02:15;;;;;;;5.35;2.25;;;;;;;23.08;100.00;100301.66;5071463;28;20113;-78
2023/05/08 10:04:40;;;;;;;5.22;3.30;;;;;;;23.51;100.00;100316.63;5071382;28;20560;-78
2023/05/08 10:07:06;;;;;;;5.00;2.08;;;;;;;23.21;100.00;100310.16;5072372;28;20028;-80
2023/05/08 10:09:31;;;;;;;5.05;2.60;;;;;;;23.50;100.00;100282.06;5071252;28;20025;-79
2023/05/08 10:11:56;;;;;;;4.85;2.60;;;;;;;23.77;100.00;100274.72;5071262;28;20067;-79
2023/05/08 10:14:22;;;;;;;6.00;2.20;;;;;;;22.63;100.00;100332.72;5071185;28;20083;-79
2023/05/08 10:16:51;;;;;;;4.43;2.40;;;;;;;23.21;100.00;100330.91;5071096;28;20034;-80
2023/05/08 10:19:24;;;;;;;4.65;2.40;;;;;;;24.19;100.00;100321.69;5071524;28;20033;-79
2023/05/08 10:21:52;;;;;;;3.85;2.50;;;;;;;23.83;100.00;100286.41;5071182;28;20072;-79
2023/05/08 10:24:23;;;;;;;2.47;2.00;;;;;;;23.33;100.00;100269.53;5070881;28;20048;-78
2023/05/08 10:27:04;;;;;;;3.97;2.20;;;;;;;24.01;100.00;100310.94;5071860;28;20066;-80
2023/05/08 10:30:06;;;;;;;3.65;2.40;;;;;;;24.36;100.00;100269.22;5070808;28;20082;-78
2023/05/08 10:32:42;;;;;;;6.80;2.70;;;;;;;24.03;100.00;100315.13;5061901;28;20457;-80
2023/05/08 10:35:10;;;;;;;5.35;2.63;;;;;;;23.48;100.00;100317.69;5072165;28;20082;-79
2023/05/08 10:37:37;;;;;;;5.88;2.10;;;;;;;23.92;100.00;100298.69;5072114;28;20035;-80
2023/05/08 10:40:04;;;;;;;4.20;2.47;;;;;;;23.36;100.00;100294.41;5071525;28;20107;-79
2023/05/08 10:42:32;;;;;;;6.75;2.20;;;;;;;23.79;100.00;100254.66;5071742;28;20032;-79
2023/05/08 10:44:58;;;;;;;3.65;2.30;;;;;;;23.44;100.00;100297.25;5070736;28;20165;-78
2023/05/08 10:47:45;;;;;;;4.15;2.25;;;;;;;24.20;100.00;100287.81;5070978;28;20467;-81
2023/05/08 10:50:29;;;;;;;4.25;1.92;;;;;;;23.82;100.00;100295.16;5071130;28;20036;-79
2023/05/08 10:53:10;;;;;;;4.28;2.40;;;;;;;24.36;100.00;100277.03;5071826;28;20426;-79
2023/05/08 10:55:37;;;;;;;5.65;2.42;;;;;;;23.93;100.00;100233.63;5071746;28;20756;-78
2023/05/08 10:58:09;;;;;;;4.60;2.03;;;;;;;24.58;100.00;100271.75;5070250;28;20029;-78
2023/05/08 11:00:55;;;;;;;3.97;2.20;;;;;;;23.92;100.00;100267.50;5070716;28;20064;-78
2023/05/08 11:03:29;;;;;;;6.30;2.30;;;;;;;24.00;100.00;100245.19;5070220;28;20127;-78
2023/05/08 11:05:57;;;;;;;6.53;1.92;;;;;;;23.97;100.00;100258.41;5070281;28;20325;-78
2023/05/08 11:08:28;;;;;;;3.25;2.00;;;;;;;22.59;100.00;100220.66;5071060;28;20399;-78
2023/05/08 11:11:06;;;;;;;4.72;1.90;;;;;;;24.37;100.00;100209.28;5070677;28;20066;-77
2023/05/08 11:13:33;;;;;;;3.45;2.22;;;;;;;24.02;100.00;100212.16;5070668;28;20106;-78
2023/05/08 11:15:58;;;;;;;3.75;2.10;;;;;;;24.37;100.00;100247.47;5070176;28;20032;-78
2023/05/08 11:18:25;;;;;;;4.20;2.05;;;;;;;23.97;100.00;100218.59;5070262;28;20047;-78
2023/05/08 11:20:59;;;;;;;3.58;1.80;;;;;;;24.09;100.00;100247.06;5070075;28;20029;-78
2023/05/08 11:23:29;;;;;;;5.13;2.25;;;;;;;23.99;100.00;100248.72;5070361;28;20044;-79